createdAt,value
2019-05-25T00:01:29.485Z,14.90
2019-05-25T00:03:56.704Z,14.90
2019-05-25T00:06:23.966Z,14.80
2019-05-25T00:08:51.289Z,14.60
2019-05-25T00:11:18.557Z,14.60
2019-05-25T00:13:45.822Z,14.50
2019-05-25T00:16:13.056Z,14.50
2019-05-25T00:18:40.345Z,14.20
2019-05-25T00:21:07.616Z,14.20
2019-05-25T00:23:34.946Z,14.20
2019-05-25T00:26:02.204Z,14.20
2019-05-25T00:28:29.492Z,14.10
2019-05-25T00:30:56.740Z,14.10
2019-05-25T00:33:24.287Z,14.10
2019-05-25T00:35:51.572Z,14.20
2019-05-25T00:38:18.847Z,14.20
2019-05-25T00:40:46.120Z,14.10
2019-05-25T00:43:13.506Z,14.00
2019-05-25T00:45:40.837Z,14.10
2019-05-25T00:48:08.117Z,14.00
2019-05-25T00:50:35.612Z,14.00
2019-05-25T00:53:02.899Z,14.00
2019-05-25T00:55:30.168Z,14.10
2019-05-25T00:57:57.420Z,14.10
2019-05-25T01:00:24.667Z,14.10
2019-05-25T01:02:52.053Z,14.10
2019-05-25T01:05:19.267Z,14.10
2019-05-25T01:07:46.568Z,14.00
2019-05-25T01:10:14.860Z,14.00
2019-05-25T01:12:42.116Z,14.00
2019-05-25T01:15:11.362Z,14.00
2019-05-25T01:17:38.527Z,13.90
2019-05-25T01:20:06.335Z,13.90
2019-05-25T01:22:33.761Z,13.90
2019-05-25T01:25:01.002Z,13.90
2019-05-25T01:27:28.277Z,13.90
2019-05-25T01:29:55.542Z,13.90
2019-05-25T01:32:22.824Z,13.80
2019-05-25T01:34:50.093Z,13.70
2019-05-25T01:37:17.331Z,13.60
2019-05-25T01:39:44.588Z,13.70
2019-05-25T01:42:11.778Z,13.70
2019-05-25T01:44:39.127Z,13.70
2019-05-25T01:47:06.376Z,13.60
2019-05-25T01:49:33.619Z,13.60
2019-05-25T01:52:00.859Z,13.60
2019-05-25T01:54:28.102Z,13.60
2019-05-25T01:56:55.372Z,13.60
2019-05-25T01:59:22.603Z,13.60
2019-05-25T02:01:49.871Z,13.60
2019-05-25T02:04:17.264Z,13.60
2019-05-25T02:06:44.523Z,13.50
2019-05-25T02:09:11.788Z,13.40
2019-05-25T02:11:39.050Z,13.40
2019-05-25T02:14:06.308Z,13.40
2019-05-25T02:16:33.676Z,13.30
2019-05-25T02:19:01.006Z,13.30
2019-05-25T02:21:28.240Z,13.30
2019-05-25T02:23:55.529Z,13.30
2019-05-25T02:26:22.771Z,13.20
2019-05-25T02:28:50.068Z,13.30
2019-05-25T02:31:17.352Z,13.20
2019-05-25T02:33:44.619Z,13.20
2019-05-25T02:36:11.844Z,13.20
2019-05-25T02:38:39.231Z,13.20
2019-05-25T02:41:06.900Z,13.20
2019-05-25T02:43:34.259Z,13.10
2019-05-25T02:46:01.505Z,13.10
2019-05-25T02:48:29.152Z,13.00
2019-05-25T02:50:56.404Z,12.90
2019-05-25T02:53:23.664Z,12.90
2019-05-25T02:55:50.911Z,12.90
2019-05-25T02:58:18.186Z,12.90
2019-05-25T03:00:45.576Z,12.80
2019-05-25T03:03:13.197Z,12.80
2019-05-25T03:05:40.667Z,12.70
2019-05-25T03:08:07.975Z,12.60
2019-05-25T03:10:35.864Z,12.70
2019-05-25T03:13:03.638Z,12.70
2019-05-25T03:15:30.925Z,12.70
2019-05-25T03:17:58.156Z,12.70
2019-05-25T03:20:25.497Z,12.70
2019-05-25T03:22:52.779Z,12.70
2019-05-25T03:25:20.781Z,12.70
2019-05-25T03:27:48.207Z,12.70
2019-05-25T03:30:21.480Z,12.70
2019-05-25T03:32:48.753Z,12.70
2019-05-25T03:35:15.986Z,12.70
2019-05-25T03:37:43.260Z,12.60
2019-05-25T03:40:10.614Z,12.60
2019-05-25T03:42:38.204Z,12.60
2019-05-25T03:45:06.536Z,12.60
2019-05-25T03:47:33.807Z,12.60
2019-05-25T03:50:01.028Z,12.60
2019-05-25T03:52:28.312Z,12.60
2019-05-25T03:54:55.552Z,12.50
2019-05-25T03:57:22.832Z,12.50
2019-05-25T03:59:50.111Z,12.50
2019-05-25T04:02:17.395Z,12.40
2019-05-25T04:04:44.676Z,12.40
2019-05-25T04:07:11.955Z,12.30
2019-05-25T04:09:39.196Z,12.40
2019-05-25T04:12:06.480Z,12.40
2019-05-25T04:14:33.763Z,12.40
2019-05-25T04:17:00.998Z,12.40
2019-05-25T04:19:28.285Z,12.40
2019-05-25T04:21:55.561Z,12.40
2019-05-25T04:24:22.820Z,12.40
2019-05-25T04:26:50.054Z,12.50
2019-05-25T04:29:17.364Z,12.50
2019-05-25T04:31:44.671Z,12.40
2019-05-25T04:34:11.930Z,12.40
2019-05-25T04:36:39.295Z,12.40
2019-05-25T04:39:06.965Z,12.40
2019-05-25T04:41:34.254Z,12.40
2019-05-25T04:44:01.539Z,12.30
2019-05-25T04:46:29.182Z,12.40
2019-05-25T04:48:56.421Z,12.40
2019-05-25T04:51:23.680Z,12.40
2019-05-25T04:53:50.955Z,12.40
2019-05-25T04:56:18.266Z,12.50
2019-05-25T04:58:45.596Z,12.50
2019-05-25T05:01:12.870Z,12.50
2019-05-25T05:03:40.188Z,12.60
2019-05-25T05:06:07.454Z,12.70
2019-05-25T05:08:35.688Z,12.90
2019-05-25T05:11:03.357Z,13.10
2019-05-25T05:13:30.615Z,13.20
2019-05-25T05:15:57.887Z,13.30
2019-05-25T05:18:25.178Z,13.40
2019-05-25T05:20:52.498Z,13.50
2019-05-25T05:23:19.823Z,13.60
2019-05-25T05:25:47.092Z,13.70
2019-05-25T05:28:14.321Z,13.80
2019-05-25T05:30:41.583Z,13.90
2019-05-25T05:33:08.860Z,14.00
2019-05-25T05:35:39.119Z,14.20
2019-05-25T05:38:06.280Z,14.40
2019-05-25T05:40:35.217Z,14.60
2019-05-25T05:43:11.147Z,14.80
2019-05-25T05:45:40.353Z,15.10
2019-05-25T05:48:09.665Z,15.40
2019-05-25T05:50:38.223Z,15.70
2019-05-25T05:53:05.481Z,16.00
2019-05-25T05:55:32.828Z,16.30
2019-05-25T06:00:27.698Z,16.70
2019-05-25T06:02:54.877Z,16.80
2019-05-25T06:05:22.232Z,17.00
2019-05-25T06:07:49.497Z,17.30
2019-05-25T06:10:16.880Z,17.40
2019-05-25T06:12:44.096Z,17.70
2019-05-25T06:15:12.059Z,18.00
2019-05-25T06:17:39.733Z,18.20
2019-05-25T06:23:36.412Z,18.50
2019-05-25T06:26:03.785Z,18.80
2019-05-25T06:28:31.072Z,19.00
2019-05-25T06:30:58.594Z,19.10
2019-05-25T06:33:25.915Z,19.10
2019-05-25T06:35:53.304Z,19.00
2019-05-25T06:38:20.569Z,19.10
2019-05-25T06:40:47.835Z,19.40
2019-05-25T06:43:15.108Z,19.50
2019-05-25T06:45:42.591Z,19.70
2019-05-25T06:48:10.089Z,19.90
2019-05-25T06:50:37.398Z,19.80
2019-05-25T06:53:04.667Z,19.80
2019-05-25T06:55:31.933Z,19.90
2019-05-25T06:57:59.200Z,19.90
2019-05-25T07:02:53.729Z,20.50
2019-05-25T07:05:20.989Z,20.80
2019-05-25T07:07:48.277Z,20.70
2019-05-25T07:10:15.740Z,20.70
2019-05-25T07:12:42.995Z,20.80
2019-05-25T07:15:10.502Z,20.70
2019-05-25T07:17:37.770Z,20.40
2019-05-25T07:20:05.157Z,20.30
2019-05-25T07:22:32.419Z,20.30
2019-05-25T07:24:59.719Z,20.20
2019-05-25T07:27:26.992Z,20.10
2019-05-25T07:29:54.239Z,20.20
2019-05-25T07:32:21.502Z,20.30
2019-05-25T07:34:48.848Z,20.60
2019-05-25T07:37:16.473Z,21.00
2019-05-25T07:39:43.787Z,21.10
2019-05-25T07:42:11.024Z,21.10
2019-05-25T07:44:38.293Z,21.20
2019-05-25T07:47:05.575Z,21.30
2019-05-25T07:49:32.820Z,21.80
2019-05-25T07:52:02.661Z,21.90
2019-05-25T07:54:29.237Z,21.90
2019-05-25T07:56:56.543Z,21.90
2019-05-25T07:59:23.898Z,21.90
2019-05-25T08:01:51.182Z,22.10
2019-05-25T08:04:18.452Z,22.20
2019-05-25T08:06:45.873Z,22.50
2019-05-25T08:09:13.295Z,22.70
2019-05-25T08:11:40.592Z,22.80
2019-05-25T08:14:07.886Z,23.00
2019-05-25T08:16:35.172Z,23.30
2019-05-25T08:19:02.484Z,23.30
2019-05-25T08:21:29.862Z,23.60
2019-05-25T08:23:57.141Z,23.80
2019-05-25T08:26:24.439Z,23.90
2019-05-25T08:28:51.732Z,24.20
2019-05-25T08:31:19.306Z,24.30
2019-05-25T08:33:46.540Z,24.00
2019-05-25T08:36:13.856Z,23.70
2019-05-25T08:38:41.113Z,23.70
2019-05-25T08:41:08.582Z,24.10
2019-05-25T08:43:35.967Z,24.20
2019-05-25T08:48:30.659Z,24.80
2019-05-25T08:50:59.660Z,24.80
2019-05-25T08:53:40.467Z,25.20
2019-05-25T08:55:56.353Z,25.60
2019-05-25T08:58:23.577Z,25.80
2019-05-25T09:00:50.868Z,25.50
2019-05-25T09:03:18.123Z,25.20
2019-05-25T09:05:45.559Z,25.30
2019-05-25T09:08:12.847Z,25.20
2019-05-25T09:10:40.084Z,25.50
2019-05-25T09:13:07.384Z,25.70
2019-05-25T09:27:51.304Z,26.30
2019-05-25T09:30:18.636Z,26.30
2019-05-25T09:32:46.086Z,26.50
2019-05-25T09:35:13.869Z,26.20
2019-05-25T09:37:41.640Z,26.30
2019-05-25T09:45:05.344Z,26.10
2019-05-25T09:47:32.651Z,26.30
2019-05-25T09:52:27.192Z,27.20
2019-05-25T09:54:55.716Z,27.30
2019-05-25T09:57:23.247Z,27.60
2019-05-25T09:59:50.702Z,27.30
2019-05-25T10:04:45.243Z,27.60
2019-05-25T10:07:12.489Z,27.70
2019-05-25T10:09:40.323Z,27.50
2019-05-25T10:12:07.711Z,27.40
2019-05-25T10:14:35.112Z,27.50
2019-05-25T10:19:29.772Z,27.80
2019-05-25T10:21:59.384Z,28.20
2019-05-25T10:24:26.293Z,27.90
2019-05-25T10:26:54.633Z,27.80
2019-05-25T10:29:35.971Z,27.80
2019-05-25T10:34:18.360Z,28.50
2019-05-25T10:36:45.697Z,28.30
2019-05-25T10:39:12.977Z,28.40
2019-05-25T10:41:40.212Z,28.50
2019-05-25T10:44:07.494Z,28.80
2019-05-25T10:49:02.055Z,28.70
2019-05-25T10:51:29.314Z,28.80
2019-05-25T10:53:56.570Z,28.70
2019-05-25T10:56:23.852Z,28.60
2019-05-25T10:58:51.249Z,28.90
2019-05-25T11:03:45.963Z,28.50
2019-05-25T11:06:13.215Z,28.40
2019-05-25T11:08:40.486Z,28.60
2019-05-25T11:13:35.008Z,28.70
2019-05-25T11:16:02.267Z,28.20
2019-05-25T11:18:29.647Z,28.30
2019-05-25T11:20:56.892Z,28.00
2019-05-25T11:23:24.186Z,28.10
2019-05-25T11:25:51.408Z,28.30
2019-05-25T11:28:18.716Z,28.30
2019-05-25T11:30:46.056Z,28.00
2019-05-25T11:33:13.327Z,28.00
2019-05-25T11:35:40.596Z,27.60
2019-05-25T11:38:07.842Z,27.60
2019-05-25T11:40:35.139Z,27.60
2019-05-25T11:43:02.446Z,27.50
2019-05-25T11:45:29.703Z,27.30
2019-05-25T11:50:24.640Z,28.00
2019-05-25T11:52:52.144Z,27.90
2019-05-25T11:55:21.316Z,28.20
2019-05-25T11:57:48.598Z,28.40
2019-05-25T12:00:24.880Z,28.30
2019-05-25T12:02:45.488Z,28.00
2019-05-25T12:05:13.059Z,27.60
2019-05-25T12:07:43.732Z,27.30
2019-05-25T12:10:10.155Z,26.80
2019-05-25T12:12:37.458Z,25.50
2019-05-25T12:15:05.156Z,24.00
2019-05-25T12:17:32.380Z,22.90
2019-05-25T12:19:59.752Z,21.90
2019-05-25T12:22:27.040Z,21.00
2019-05-25T17:15:50.369Z,22.30
2019-05-25T17:18:17.644Z,22.40
2019-05-25T17:20:44.983Z,22.30
2019-05-25T17:23:12.610Z,22.20
2019-05-25T17:25:39.977Z,22.00
2019-05-25T17:28:07.258Z,21.90
2019-05-25T17:30:42.420Z,21.80
2019-05-25T17:33:10.072Z,21.70
2019-05-25T17:35:37.302Z,21.60
2019-05-25T17:38:04.498Z,21.60
2019-05-25T17:40:31.889Z,21.60
2019-05-25T17:42:59.199Z,21.50
2019-05-25T17:45:26.449Z,21.50
2019-05-25T17:47:53.721Z,21.30
2019-05-25T17:50:20.979Z,21.20
2019-05-25T17:52:48.297Z,21.10
2019-05-25T17:55:15.659Z,20.90
2019-05-25T17:57:42.937Z,20.80
2019-05-25T18:00:13.246Z,20.80
2019-05-25T18:02:40.785Z,20.70
2019-05-25T18:05:09.878Z,20.60
2019-05-25T18:10:04.881Z,20.50
2019-05-25T18:12:32.232Z,20.40
2019-05-25T18:14:59.521Z,20.30
2019-05-25T18:17:26.824Z,20.20
2019-05-25T18:19:54.109Z,20.10
2019-05-25T18:22:21.392Z,20.00
2019-05-25T18:24:48.661Z,19.90
2019-05-25T18:27:15.921Z,19.80
2019-05-25T18:29:43.239Z,19.60
2019-05-25T18:32:10.538Z,19.50
2019-05-25T18:34:37.831Z,19.40
2019-05-25T18:37:05.153Z,19.20
2019-05-25T18:39:32.470Z,19.10
2019-05-25T18:41:59.961Z,18.90
2019-05-25T18:44:27.264Z,18.80
2019-05-25T18:46:54.536Z,18.70
2019-05-25T18:49:21.835Z,18.70
2019-05-25T18:51:49.118Z,18.60
2019-05-25T18:54:16.714Z,18.50
2019-05-25T18:56:44.025Z,18.40
2019-05-25T18:59:11.312Z,18.30
2019-05-25T19:01:38.589Z,18.20
2019-05-25T19:04:05.875Z,18.20
2019-05-25T19:06:33.175Z,18.20
2019-05-25T19:09:00.524Z,18.10
2019-05-25T19:11:27.803Z,18.10
2019-05-25T19:13:55.089Z,18.00
2019-05-25T19:16:22.408Z,17.90
2019-05-25T19:18:49.675Z,17.90
2019-05-25T19:21:16.953Z,17.80
2019-05-25T19:23:44.213Z,17.70
2019-05-25T19:26:11.747Z,17.60
2019-05-25T19:28:39.112Z,17.50
2019-05-25T19:31:06.688Z,17.50
2019-05-25T19:33:34.116Z,17.50
2019-05-25T19:36:01.386Z,17.50
2019-05-25T19:38:28.667Z,17.40
2019-05-25T19:40:55.972Z,17.30
2019-05-25T19:43:23.266Z,17.10
2019-05-25T19:45:50.581Z,16.90
2019-05-25T19:48:17.865Z,16.90
2019-05-25T19:50:45.401Z,16.80
2019-05-25T19:53:12.659Z,16.90
2019-05-25T19:55:39.827Z,16.90
2019-05-25T19:58:07.252Z,16.90
2019-05-25T20:00:34.537Z,16.70
2019-05-25T20:03:01.605Z,16.70
2019-05-25T20:05:28.911Z,16.90
2019-05-25T20:07:56.232Z,17.00
2019-05-25T20:10:23.699Z,17.20
2019-05-25T20:12:50.992Z,17.20
2019-05-25T20:15:18.475Z,17.20
2019-05-25T20:17:45.753Z,17.20
2019-05-25T20:20:13.529Z,17.10
2019-05-25T20:22:40.829Z,17.10
2019-05-25T20:25:08.206Z,17.20
2019-05-25T20:27:35.511Z,17.10
2019-05-25T20:30:02.958Z,17.10
2019-05-25T20:32:30.273Z,17.10
2019-05-25T20:34:57.725Z,17.10
2019-05-25T20:37:25.153Z,17.10
2019-05-25T20:39:52.543Z,17.10
2019-05-25T20:42:19.949Z,17.10
2019-05-25T20:44:47.282Z,17.00
2019-05-25T20:47:14.614Z,16.90
2019-05-25T20:49:41.903Z,16.90
2019-05-25T20:52:09.220Z,16.80
2019-05-25T20:54:37.195Z,16.80
2019-05-25T20:57:04.480Z,16.70
2019-05-25T20:59:31.866Z,16.60
2019-05-25T21:01:59.175Z,16.60
2019-05-25T21:04:26.471Z,16.60
2019-05-25T21:06:53.758Z,16.60
2019-05-25T21:09:21.057Z,16.60
2019-05-25T21:11:48.357Z,16.60
2019-05-25T21:14:15.600Z,16.60
2019-05-25T21:16:43.218Z,16.60
2019-05-25T21:19:10.489Z,16.60
2019-05-25T21:21:37.865Z,16.60
2019-05-25T21:24:05.141Z,16.60
2019-05-25T21:26:32.427Z,16.60
2019-05-25T21:28:59.855Z,16.60
2019-05-25T21:31:27.409Z,16.60
2019-05-25T21:33:54.723Z,16.60
2019-05-25T21:36:21.988Z,16.50
2019-05-25T21:38:49.255Z,16.60
2019-05-25T21:41:16.777Z,16.60
2019-05-25T21:43:44.180Z,16.60
2019-05-25T21:46:11.468Z,16.60
2019-05-25T21:48:38.763Z,16.60
2019-05-25T21:51:06.057Z,16.60
2019-05-25T21:53:33.356Z,16.60
2019-05-25T21:56:00.646Z,16.60
2019-05-25T21:58:27.925Z,16.70
2019-05-25T22:00:55.498Z,16.70
2019-05-25T22:03:22.896Z,16.60
2019-05-25T22:08:17.424Z,16.70
2019-05-25T22:10:45.031Z,16.60
2019-05-25T22:13:25.337Z,16.60
2019-05-25T22:15:41.530Z,16.60
2019-05-25T22:18:08.882Z,16.60
2019-05-25T22:20:36.164Z,16.60
2019-05-25T22:23:03.744Z,16.60
2019-05-25T22:25:31.122Z,16.50
2019-05-25T22:27:58.555Z,16.50
2019-05-25T22:30:25.818Z,16.40
2019-05-25T22:32:53.014Z,16.30
2019-05-25T22:35:20.303Z,16.30
2019-05-25T22:37:47.545Z,16.20
2019-05-25T22:40:14.841Z,16.20
2019-05-25T22:42:42.064Z,16.30
2019-05-25T22:45:11.708Z,16.30
2019-05-25T22:47:38.977Z,16.30
2019-05-25T22:50:06.573Z,16.20
2019-05-25T22:52:33.861Z,16.00
2019-05-25T22:55:01.272Z,16.00
2019-05-25T22:57:28.652Z,16.00
2019-05-25T22:59:55.916Z,15.90
2019-05-25T23:02:23.189Z,15.90
2019-05-25T23:04:50.957Z,15.90
2019-05-25T23:07:18.345Z,15.80
2019-05-25T23:09:45.874Z,15.80
2019-05-25T23:12:13.153Z,15.80
2019-05-25T23:14:40.465Z,15.80
2019-05-25T23:17:07.734Z,15.80
2019-05-25T23:22:03.073Z,15.90
2019-05-25T23:24:30.357Z,15.80
2019-05-25T23:26:57.638Z,15.60
2019-05-25T23:29:24.963Z,15.50
2019-05-25T23:31:52.394Z,15.40
2019-05-25T23:34:19.637Z,15.30
2019-05-25T23:36:46.976Z,15.20
2019-05-25T23:39:14.282Z,15.20
2019-05-25T23:41:41.544Z,15.20
2019-05-25T23:44:09.094Z,15.10
2019-05-25T23:46:36.417Z,15.10
2019-05-25T23:49:03.892Z,15.00
2019-05-25T23:51:31.504Z,15.00
2019-05-25T23:53:58.743Z,15.00
2019-05-25T23:56:26.029Z,14.90
2019-05-25T23:58:53.344Z,14.80
